Time;durP1;ratioP1;P1;durP2;ratioP2;P2;SDS_P1;SDS_P2;PMS_P1;PMS_P2;Temp;Humidity;BMP_temperature;BMP_pressure;BME280_temperature;BME280_humidity;BME280_pressure;Samples;Min_cycle;Max_cycle;Signal;HPM_P1;HPM_P2
2022/03/12 00:00:06;;;;;;;6.47;3.33;;;-3.90;70.20;-4.60;99159.00;;;;4874705;28;87769;-64
2022/03/12 00:02:39;;;;;;;10.02;3.67;;;-3.90;70.40;-4.60;99155.00;;;;4882826;28;88261;-64
2022/03/12 00:05:07;;;;;;;5.25;3.20;;;-3.90;70.90;-4.60;99146.00;;;;4892802;28;87438;-64
2022/03/12 00:07:37;;;;;;;7.28;3.33;;;-3.90;71.10;-4.60;99147.00;;;;4896113;28;88638;-65
2022/03/12 00:10:05;;;;;;;6.43;3.47;;;-3.80;71.50;-4.60;99151.00;;;;4892944;28;87884;-64
2022/03/12 00:12:34;;;;;;;8.23;3.25;;;-3.80;71.90;-4.60;99147.00;;;;4877254;28;87134;-64
2022/03/12 00:15:04;;;;;;;7.38;4.03;;;-3.80;72.50;-4.60;99147.00;;;;4891700;28;87436;-64
2022/03/12 00:17:32;;;;;;;6.13;3.40;;;-3.90;73.00;-4.60;99147.00;;;;4894747;28;87841;-64
2022/03/12 00:19:59;;;;;;;6.47;3.13;;;-3.90;73.60;-4.60;99139.00;;;;4894418;28;87154;-65
2022/03/12 00:22:27;;;;;;;6.13;3.70;;;-3.90;73.70;-4.60;99143.00;;;;4878078;28;87576;-64
2022/03/12 00:24:54;;;;;;;7.38;3.50;;;-3.90;73.60;-4.60;99148.00;;;;4877157;28;87005;-65
2022/03/12 00:27:21;;;;;;;6.15;3.60;;;-3.90;74.20;-4.60;99159.00;;;;4895228;28;88710;-64
2022/03/12 00:29:48;;;;;;;9.02;4.05;;;-3.90;74.90;-4.60;99160.00;;;;4883973;28;89468;-64
2022/03/12 00:32:14;;;;;;;8.07;3.40;;;-3.90;75.50;-4.60;99148.00;;;;4891148;28;87109;-63
2022/03/12 00:34:40;;;;;;;5.60;3.17;;;-3.80;76.50;-4.50;99153.00;;;;4896031;28;88216;-67
2022/03/12 00:37:07;;;;;;;9.68;4.10;;;-3.80;76.70;-4.50;99144.00;;;;4891239;28;87525;-65
2022/03/12 00:39:33;;;;;;;5.80;3.47;;;-3.80;76.50;-4.50;99147.00;;;;4897109;28;87489;-66
2022/03/12 00:41:59;;;;;;;6.53;3.90;;;-3.80;76.80;-4.50;99131.00;;;;4893641;28;87896;-67
2022/03/12 00:44:26;;;;;;;7.90;3.38;;;-3.80;77.30;-4.50;99131.00;;;;4894540;28;87027;-67
2022/03/12 00:46:52;;;;;;;6.07;3.58;;;-3.80;77.80;-4.50;99147.00;;;;4894977;28;88233;-65
2022/03/12 00:49:18;;;;;;;8.70;3.55;;;-3.80;78.10;-4.50;99147.00;;;;4878273;28;87292;-65
2022/03/12 00:51:45;;;;;;;7.30;4.03;;;-3.80;78.60;-4.50;99143.00;;;;4892935;28;87955;-65
2022/03/12 00:54:11;;;;;;;6.80;3.80;;;-3.80;78.60;-4.50;99132.00;;;;4893701;28;87407;-66
2022/03/12 00:56:39;;;;;;;8.02;3.53;;;-3.80;78.90;-4.50;99126.00;;;;4892724;28;88094;-66
2022/03/12 00:59:06;;;;;;;6.72;3.70;;;-3.80;79.20;-4.50;99108.00;;;;4889472;28;87502;-66
2022/03/12 01:01:32;;;;;;;6.10;3.60;;;-3.80;79.20;-4.60;99113.00;;;;4890943;28;87184;-63
2022/03/12 01:03:59;;;;;;;6.57;3.60;;;-3.90;79.30;-4.60;99126.00;;;;4894670;28;87051;-64
2022/03/12 01:06:25;;;;;;;5.57;3.33;;;-3.90;80.40;-4.70;99115.00;;;;4892612;28;88153;-64
2022/03/12 01:08:51;;;;;;;5.60;3.55;;;-3.90;80.60;-4.70;99115.00;;;;4893658;28;88515;-63
2022/03/12 01:11:18;;;;;;;8.88;4.03;;;-3.90;81.80;-4.70;99108.00;;;;4893264;28;87090;-63
2022/03/12 01:13:44;;;;;;;6.95;3.80;;;-3.90;82.50;-4.60;99109.00;;;;4894925;28;87261;-64
2022/03/12 01:16:10;;;;;;;6.10;3.42;;;-3.90;83.00;-4.70;99113.00;;;;4876440;28;90138;-63
2022/03/12 01:18:39;;;;;;;5.53;3.22;;;-3.90;83.30;-4.70;99107.00;;;;4894143;28;88047;-63
2022/03/12 01:21:18;;;;;;;9.48;3.63;;;-4.00;84.20;-4.70;99100.00;;;;4895108;28;87071;-63
2022/03/12 01:23:50;;;;;;;5.05;3.47;;;-3.90;84.20;-4.70;99103.00;;;;4892243;28;88032;-63
2022/03/12 01:26:19;;;;;;;6.88;4.13;;;-3.90;84.40;-4.60;99094.00;;;;4886958;28;88881;-66
2022/03/12 01:28:46;;;;;;;6.85;3.67;;;-3.90;84.40;-4.60;99109.00;;;;4889657;28;88177;-66
2022/03/12 01:31:13;;;;;;;6.40;3.28;;;-3.90;84.70;-4.60;99098.00;;;;4891702;28;87914;-65
2022/03/12 01:33:39;;;;;;;9.10;3.95;;;-3.90;85.30;-4.60;99100.00;;;;4893468;28;86498;-65
2022/03/12 01:36:07;;;;;;;8.38;4.10;;;-3.90;85.50;-4.60;99096.00;;;;4893210;28;88775;-65
2022/03/12 01:38:49;;;;;;;7.40;4.20;;;-3.90;85.90;-4.60;99091.00;;;;4890749;28;87167;-64
2022/03/12 01:41:24;;;;;;;9.93;4.05;;;-3.90;86.30;-4.60;99095.00;;;;4890075;28;88899;-65
2022/03/12 01:43:55;;;;;;;6.22;3.17;;;-3.80;86.90;-4.50;99091.00;;;;4893081;28;87053;-65
2022/03/12 01:46:47;;;;;;;6.57;4.00;;;-3.90;87.80;-4.50;99077.00;;;;4895663;28;87846;-65
2022/03/12 01:49:18;;;;;;;;;;;-3.90;87.90;-4.50;99090.00;;;;4893106;28;87425;-65
2022/03/12 01:51:49;;;;;;;9.77;4.38;;;-3.80;88.70;-4.50;99088.00;;;;4893893;28;87046;-65
2022/03/12 01:54:24;;;;;;;9.73;4.20;;;-3.80;89.20;-4.50;99087.00;;;;4890296;28;87988;-65
2022/03/12 01:56:53;;;;;;;6.28;3.83;;;-3.80;89.40;-4.50;99087.00;;;;4892758;28;87143;-65
2022/03/12 01:59:21;;;;;;;6.10;3.83;;;-3.80;89.70;-4.50;99083.00;;;;4892190;28;87186;-65
2022/03/12 02:01:52;;;;;;;8.27;3.90;;;-3.90;89.40;-4.50;99084.00;;;;4889343;28;87166;-65
2022/03/12 02:04:23;;;;;;;6.33;3.80;;;-3.80;89.80;-4.50;99083.00;;;;4888429;28;87426;-65
2022/03/12 02:06:50;;;;;;;6.53;3.75;;;-3.80;89.80;-4.50;99088.00;;;;4887707;28;89502;-65
2022/03/12 02:09:18;;;;;;;9.00;4.00;;;-3.80;90.00;-4.50;99086.00;;;;4887151;28;88186;-65
2022/03/12 02:11:51;;;;;;;7.75;4.40;;;-3.80;90.00;-4.50;99090.00;;;;4893798;28;87036;-65
2022/03/12 02:14:24;;;;;;;6.05;3.72;;;-3.80;90.30;-4.50;99085.00;;;;4890634;28;86931;-65
2022/03/12 02:17:04;;;;;;;6.15;3.83;;;-3.80;90.30;-4.50;99081.00;;;;4890595;28;88840;-65
2022/03/12 02:19:32;;;;;;;11.32;4.60;;;-3.80;90.40;-4.50;99081.00;;;;4891597;28;88739;-66
2022/03/12 02:22:08;;;;;;;7.82;4.18;;;-3.80;90.40;-4.50;99079.00;;;;4893242;28;87058;-65
2022/03/12 02:24:37;;;;;;;6.63;3.60;;;-3.80;90.70;-4.40;99086.00;;;;4874651;28;86263;-66
2022/03/12 02:27:08;;;;;;;8.45;4.03;;;-3.80;90.70;-4.40;99084.00;;;;4872723;28;87915;-66
2022/03/12 02:29:35;;;;;;;7.38;3.88;;;-3.70;90.90;-4.40;99081.00;;;;4857956;28;87430;-65
2022/03/12 02:32:09;;;;;;;9.45;4.70;;;-3.70;91.10;-4.40;99074.00;;;;4893702;28;88255;-65
2022/03/12 02:34:45;;;;;;;10.32;3.72;;;-3.70;91.20;-4.40;99075.00;;;;4897103;28;86997;-66
2022/03/12 02:37:27;;;;;;;5.80;4.10;;;-3.70;91.10;-4.40;99066.00;;;;4894096;28;87683;-67
2022/03/12 02:39:53;;;;;;;6.43;3.70;;;-3.70;91.10;-4.40;99067.00;;;;4890994;28;89071;-67
2022/03/12 02:42:20;;;;;;;7.65;4.60;;;-3.70;91.40;-4.40;99065.00;;;;4891021;28;87033;-68
2022/03/12 02:44:49;;;;;;;6.68;4.03;;;-3.70;91.50;-4.40;99065.00;;;;4879207;28;87472;-67
2022/03/12 02:47:21;;;;;;;7.10;4.15;;;-3.80;91.40;-4.40;99073.00;;;;4889533;28;88023;-67
2022/03/12 02:49:53;;;;;;;;;;;-3.70;91.50;-4.40;99070.00;;;;4893860;28;88625;-68
2022/03/12 02:52:21;;;;;;;6.03;3.97;;;-3.70;91.50;-4.40;99067.00;;;;4892397;28;87059;-67
2022/03/12 02:54:50;;;;;;;8.00;4.03;;;-3.70;91.40;-4.40;99067.00;;;;4877189;28;87169;-66
2022/03/12 02:57:23;;;;;;;12.23;4.35;;;-3.70;91.50;-4.40;99063.00;;;;4879090;28;88847;-66
2022/03/12 02:59:53;;;;;;;8.63;4.07;;;-3.70;91.60;-4.40;99074.00;;;;4892308;28;88019;-66
2022/03/12 03:02:40;;;;;;;10.70;4.45;;;-3.80;91.60;-4.40;99064.00;;;;4892688;28;87413;-66
2022/03/12 03:08:04;;;;;;;6.78;3.95;;;-3.70;92.10;-4.40;99043.00;;;;4894715;28;87629;-66
2022/03/12 03:10:39;;;;;;;8.13;4.57;;;-3.70;91.80;-4.40;99048.00;;;;4878378;28;87383;-66
2022/03/12 03:13:28;;;;;;;7.57;4.60;;;-3.70;91.80;-4.40;99043.00;;;;4892309;28;87001;-66
2022/03/12 03:15:59;;;;;;;7.70;4.38;;;-3.70;91.90;-4.40;99040.00;;;;4886766;28;86440;-66
2022/03/12 03:18:32;;;;;;;6.82;4.53;;;-3.80;92.10;-4.40;99029.00;;;;4873283;28;90208;-66
2022/03/12 03:21:01;;;;;;;8.20;4.10;;;-3.80;92.20;-4.40;99028.00;;;;4893495;28;87854;-66
2022/03/12 03:23:31;;;;;;;9.70;4.82;;;-3.80;92.20;-4.50;99025.00;;;;4893928;28;88326;-64
2022/03/12 03:26:00;;;;;;;10.40;4.75;;;-3.80;92.20;-4.50;99044.00;;;;4879187;28;87094;-65
2022/03/12 03:28:28;;;;;;;9.57;5.05;;;-3.80;92.20;-4.50;99028.00;;;;4886713;28;88706;-65
2022/03/12 03:30:55;;;;;;;7.90;4.75;;;-3.80;92.20;-4.50;99041.00;;;;4894952;28;87904;-66
2022/03/12 03:33:25;;;;;;;7.13;4.30;;;-3.80;92.20;-4.50;99038.00;;;;4894304;28;88130;-62
2022/03/12 03:35:51;;;;;;;7.05;4.32;;;-3.80;92.20;-4.40;99027.00;;;;4896360;28;87115;-65
2022/03/12 03:38:18;;;;;;;8.13;4.35;;;-3.80;92.20;-4.50;99015.00;;;;4893721;28;87370;-64
2022/03/12 03:40:46;;;;;;;6.43;4.10;;;-3.80;92.20;-4.50;99018.00;;;;4897665;28;87371;-64
2022/03/12 03:43:16;;;;;;;8.07;4.43;;;-3.80;92.20;-4.40;99014.00;;;;4875604;28;88041;-64
2022/03/12 03:45:45;;;;;;;9.48;4.72;;;-3.80;92.20;-4.40;99024.00;;;;4897120;28;87027;-63
2022/03/12 03:48:18;;;;;;;7.70;4.68;;;-3.80;92.20;-4.50;99029.00;;;;4878461;28;88658;-64
2022/03/12 03:50:46;;;;;;;7.43;4.65;;;-3.80;92.20;-4.50;99029.00;;;;4893755;28;88115;-65
2022/03/12 03:53:15;;;;;;;6.10;4.60;;;-3.80;92.20;-4.50;99040.00;;;;4895636;28;87122;-65
2022/03/12 03:55:43;;;;;;;7.30;4.72;;;-3.80;92.20;-4.50;99051.00;;;;4878225;28;87226;-65
2022/03/12 03:58:12;;;;;;;6.88;4.82;;;-3.80;92.20;-4.50;99053.00;;;;4892922;28;87613;-65
2022/03/12 04:00:39;;;;;;;10.32;4.80;;;-3.80;92.20;-4.50;99043.00;;;;4889772;28;87348;-65
2022/03/12 04:03:05;;;;;;;8.95;5.50;;;-3.80;92.20;-4.50;99048.00;;;;4896447;28;87729;-65
2022/03/12 04:05:38;;;;;;;7.15;4.45;;;-3.80;92.20;-4.50;99060.00;;;;4896811;28;86473;-65
2022/03/12 04:08:07;;;;;;;7.38;4.40;;;-3.80;92.50;-4.50;99063.00;;;;4891807;28;87816;-65
2022/03/12 04:10:35;;;;;;;10.43;4.75;;;-3.90;92.20;-4.50;99075.00;;;;4892904;28;90047;-65
2022/03/12 04:13:03;;;;;;;11.93;5.25;;;-3.90;92.40;-4.60;99080.00;;;;4894656;28;88132;-64
2022/03/12 04:15:30;;;;;;;7.70;4.82;;;-3.90;92.40;-4.60;99054.00;;;;4892070;28;88077;-65
2022/03/12 04:17:57;;;;;;;8.80;5.18;;;-3.90;92.40;-4.60;99049.00;;;;4874628;28;87835;-65
2022/03/12 04:20:25;;;;;;;8.45;5.03;;;-3.90;92.50;-4.60;99051.00;;;;4895392;28;88450;-65
2022/03/12 04:22:52;;;;;;;8.15;5.05;;;-3.90;92.70;-4.50;99056.00;;;;4879008;28;87062;-65
2022/03/12 04:25:20;;;;;;;7.22;4.53;;;-3.90;92.70;-4.50;99047.00;;;;4888603;28;87238;-65
2022/03/12 04:27:47;;;;;;;9.85;5.63;;;-3.90;92.90;-4.50;99056.00;;;;4878704;28;88137;-65
2022/03/12 04:30:20;;;;;;;7.90;4.60;;;-3.90;93.10;-4.50;99058.00;;;;4892253;28;87956;-65
2022/03/12 04:32:47;;;;;;;7.40;4.90;;;-3.80;93.10;-4.40;99065.00;;;;4895723;28;87002;-65
2022/03/12 04:35:16;;;;;;;9.13;5.78;;;-3.80;93.20;-4.40;99059.00;;;;4898429;28;87344;-65
2022/03/12 04:37:42;;;;;;;9.10;5.10;;;-3.70;93.30;-4.30;99068.00;;;;4875081;28;90109;-66
2022/03/12 04:40:13;;;;;;;8.27;5.35;;;-3.70;93.60;-4.20;99063.00;;;;4894340;28;88276;-66
2022/03/12 04:42:44;;;;;;;11.27;5.72;;;-3.60;93.70;-4.20;99069.00;;;;4895167;28;87035;-66
2022/03/12 04:45:13;;;;;;;8.37;4.80;;;-3.60;93.90;-4.20;99076.00;;;;4894128;28;87397;-64
2022/03/12 04:47:46;;;;;;;11.95;5.50;;;-3.60;93.90;-4.10;99065.00;;;;4895186;28;88247;-63
2022/03/12 04:50:15;;;;;;;8.90;4.93;;;-3.50;93.90;-4.10;99066.00;;;;4889533;28;87361;-63
2022/03/12 04:52:51;;;;;;;9.55;5.55;;;-3.40;94.00;-4.00;99078.00;;;;4889075;28;87401;-63
2022/03/12 04:55:27;;;;;;;7.57;4.78;;;-3.40;94.00;-3.90;99073.00;;;;4871720;28;86645;-63
2022/03/12 04:57:55;;;;;;;9.23;5.30;;;-3.30;94.00;-3.90;99083.00;;;;4874212;28;88208;-63
2022/03/12 05:00:29;;;;;;;7.88;5.20;;;-3.30;94.00;-3.90;99077.00;;;;4894880;28;87109;-64
2022/03/12 05:03:18;;;;;;;9.00;5.10;;;-3.30;94.00;-3.80;99074.00;;;;4873843;28;87967;-63
2022/03/12 05:05:50;;;;;;;8.88;5.25;;;-3.20;94.00;-3.70;99090.00;;;;4883729;28;87161;-63
2022/03/12 05:08:23;;;;;;;8.00;4.72;;;-3.10;94.00;-3.70;99085.00;;;;4892498;28;88703;-63
2022/03/12 05:10:53;;;;;;;7.18;4.95;;;-3.10;94.10;-3.70;99079.00;;;;4869882;28;88047;-62
2022/03/12 05:13:27;;;;;;;8.02;5.25;;;-3.10;94.10;-3.70;99074.00;;;;4870907;28;87064;-65
2022/03/12 05:15:57;;;;;;;7.78;5.30;;;-3.10;94.10;-3.70;99069.00;;;;4884009;28;87232;-62
2022/03/12 05:18:26;;;;;;;10.05;5.22;;;-3.10;94.10;-3.70;99068.00;;;;4892437;28;88620;-62
2022/03/12 05:20:54;;;;;;;8.70;4.95;;;-3.10;94.40;-3.60;99070.00;;;;4894769;28;87368;-64
2022/03/12 05:23:24;;;;;;;6.53;4.75;;;-3.00;94.70;-3.60;99082.00;;;;4894904;28;87105;-64
2022/03/12 05:25:51;;;;;;;8.38;5.40;;;-3.00;94.90;-3.60;99077.00;;;;4892804;28;87160;-63
2022/03/12 05:28:24;;;;;;;8.95;5.35;;;-3.00;95.10;-3.60;99078.00;;;;4894672;28;88874;-64
2022/03/12 05:30:54;;;;;;;8.07;4.60;;;-3.00;95.60;-3.50;99070.00;;;;4885328;28;88922;-62
2022/03/12 05:33:20;;;;;;;8.88;5.45;;;-3.00;95.80;-3.50;99069.00;;;;4892850;28;87115;-62
2022/03/12 05:35:51;;;;;;;12.80;5.50;;;-3.00;96.30;-3.50;99062.00;;;;4877384;28;87558;-64
2022/03/12 05:38:18;;;;;;;7.25;4.78;;;-3.00;96.50;-3.50;99055.00;;;;4891925;28;87632;-63
2022/03/12 05:40:46;;;;;;;8.73;5.35;;;-3.00;96.70;-3.40;99054.00;;;;4872230;28;87499;-63
2022/03/12 05:43:15;;;;;;;9.35;5.90;;;-2.90;97.10;-3.40;99061.00;;;;4893355;28;87572;-63
2022/03/12 05:45:47;;;;;;;8.88;5.93;;;-2.90;97.20;-3.30;99068.00;;;;4889758;28;86701;-64
2022/03/12 05:48:15;;;;;;;9.65;5.53;;;-2.80;97.30;-3.20;99082.00;;;;4892606;28;87573;-66
2022/03/12 05:50:48;;;;;;;8.93;5.38;;;-2.80;97.30;-3.20;99069.00;;;;4891602;28;88412;-63
2022/03/12 05:53:18;;;;;;;7.53;5.55;;;-2.80;97.00;-3.10;99062.00;;;;4894010;28;88387;-63
2022/03/12 05:55:47;;;;;;;9.77;6.18;;;-2.70;97.10;-3.10;99074.00;;;;4893235;28;86964;-63
2022/03/12 05:58:17;;;;;;;9.50;5.68;;;-2.60;96.90;-3.10;99067.00;;;;4874434;28;89130;-63
2022/03/12 06:00:46;;;;;;;8.73;5.75;;;-2.60;96.50;-3.00;99065.00;;;;4890198;28;87287;-63
2022/03/12 06:03:15;;;;;;;10.88;5.15;;;-2.60;96.20;-3.00;99058.00;;;;4890694;28;87158;-65
2022/03/12 06:05:41;;;;;;;9.07;5.20;;;-2.50;96.10;-2.90;99058.00;;;;4889514;28;87388;-65
2022/03/12 06:08:09;;;;;;;9.10;5.53;;;-2.40;95.60;-2.60;99064.00;;;;4889086;28;87126;-66
2022/03/12 06:10:37;;;;;;;7.25;5.13;;;-2.20;95.30;-2.60;99061.00;;;;4893135;28;87694;-65
2022/03/12 06:13:06;;;;;;;10.55;5.30;;;-2.10;95.10;-2.50;99074.00;;;;4890612;28;86983;-66
2022/03/12 06:15:36;;;;;;;12.15;5.68;;;-2.10;94.90;-2.40;99052.00;;;;4891241;28;87145;-67
2022/03/12 06:20:53;;;;;;;8.00;5.38;;;-1.90;94.30;-2.30;99053.00;;;;4888857;28;87639;-66
2022/03/12 06:23:20;;;;;;;8.75;5.47;;;-1.80;94.30;-2.30;99051.00;;;;4893373;28;88089;-66
2022/03/12 06:25:46;;;;;;;7.60;5.10;;;-1.90;94.60;-2.40;99060.00;;;;4888320;28;88008;-67
2022/03/12 06:28:12;;;;;;;9.50;5.80;;;-1.90;94.60;-2.30;99040.00;;;;4891519;28;88178;-65
2022/03/12 06:30:41;;;;;;;10.20;5.60;;;-1.90;94.60;-2.30;99049.00;;;;4882411;28;88694;-65
2022/03/12 06:33:09;;;;;;;8.02;5.55;;;-1.90;94.60;-2.40;99053.00;;;;4895540;28;86934;-66
2022/03/12 06:35:35;;;;;;;8.07;4.95;;;-1.90;94.80;-2.40;99057.00;;;;4892005;28;86408;-66
2022/03/12 06:38:02;;;;;;;9.05;5.45;;;-2.00;94.90;-2.40;99060.00;;;;4891883;28;87003;-66
2022/03/12 06:40:29;;;;;;;9.75;5.70;;;-2.00;95.00;-2.50;99054.00;;;;4892275;28;87839;-67
2022/03/12 06:42:59;;;;;;;6.90;5.40;;;-2.10;95.00;-2.50;99058.00;;;;4893049;28;87912;-66
2022/03/12 06:45:28;;;;;;;9.00;5.60;;;-2.00;95.30;-2.50;99057.00;;;;4893635;28;87476;-67
2022/03/12 06:47:54;;;;;;;8.32;5.75;;;-2.00;95.20;-2.50;99077.00;;;;4888674;28;87630;-66
2022/03/12 06:50:23;;;;;;;13.25;5.90;;;-2.10;95.30;-2.50;99069.00;;;;4892880;28;87435;-66
2022/03/12 06:52:50;;;;;;;9.25;5.82;;;-2.10;95.50;-2.50;99066.00;;;;4890962;28;87063;-66
2022/03/12 06:55:21;;;;;;;10.00;5.90;;;-2.10;95.60;-2.40;99070.00;;;;4876353;28;87086;-66
2022/03/12 06:57:51;;;;;;;7.78;5.72;;;-2.00;95.70;-2.40;99064.00;;;;4873785;28;89843;-66
2022/03/12 07:00:24;;;;;;;9.55;5.90;;;-1.90;95.50;-2.30;99073.00;;;;4876629;28;86473;-66
2022/03/12 07:02:51;;;;;;;9.30;5.93;;;-1.80;95.50;-2.20;99068.00;;;;4891934;28;87615;-65
2022/03/12 07:05:18;;;;;;;10.43;6.40;;;-1.80;95.30;-2.20;99069.00;;;;4888774;28;86963;-65
2022/03/12 07:07:47;;;;;;;8.85;5.90;;;-1.70;95.40;-2.10;99065.00;;;;4892259;28;88683;-65
2022/03/12 07:10:13;;;;;;;20.13;6.32;;;-1.60;95.30;-2.10;99062.00;;;;4894766;28;88333;-67
2022/03/12 07:12:46;;;;;;;9.80;5.78;;;-1.60;95.10;-2.10;99068.00;;;;4870669;28;87203;-66
2022/03/12 07:15:14;;;;;;;8.52;5.68;;;-1.60;95.10;-2.10;99080.00;;;;4865129;28;87603;-67
2022/03/12 07:17:42;;;;;;;7.68;5.47;;;-1.70;95.30;-2.20;99082.00;;;;4885613;28;87520;-64
2022/03/12 07:20:10;;;;;;;10.57;5.95;;;-1.80;95.50;-2.20;99071.00;;;;4892597;28;88274;-67
2022/03/12 07:22:37;;;;;;;9.27;5.57;;;-1.80;95.50;-2.10;99075.00;;;;4892813;28;87275;-64
2022/03/12 07:25:04;;;;;;;8.55;5.95;;;-1.70;95.30;-2.00;99075.00;;;;4889695;28;86316;-66
2022/03/12 07:27:31;;;;;;;8.52;6.18;;;-1.50;95.20;-1.90;99087.00;;;;4891642;28;87903;-65
2022/03/12 07:29:58;;;;;;;9.35;5.60;;;-1.50;95.00;-1.80;99092.00;;;;4887966;28;88048;-66
2022/03/12 07:32:26;;;;;;;8.95;5.95;;;-1.40;95.30;-1.90;99092.00;;;;4891814;28;88477;-65
2022/03/12 07:34:52;;;;;;;8.70;5.57;;;-1.50;95.40;-1.90;99093.00;;;;4877220;28;87220;-65
2022/03/12 07:37:20;;;;;;;8.40;5.90;;;-1.60;95.60;-1.90;99086.00;;;;4895303;28;87898;-66
2022/03/12 07:39:49;;;;;;;7.82;6.22;;;-1.50;95.80;-1.90;99099.00;;;;4874173;28;88384;-66
2022/03/12 07:42:16;;;;;;;8.23;5.72;;;-1.40;95.90;-2.00;99087.00;;;;4895944;28;87051;-67
2022/03/12 07:44:42;;;;;;;9.68;6.15;;;-1.60;95.90;-2.10;99086.00;;;;4887760;28;88129;-65
2022/03/12 07:47:08;;;;;;;8.95;6.40;;;-1.70;96.50;-2.20;99077.00;;;;4894111;28;88709;-66
2022/03/12 07:49:35;;;;;;;9.07;5.90;;;-1.80;96.80;-2.20;99080.00;;;;4893629;28;87486;-65
2022/03/12 07:52:02;;;;;;;10.07;6.60;;;-1.90;97.10;-2.30;99092.00;;;;4896296;28;87134;-66
2022/03/12 07:54:31;;;;;;;14.23;6.85;;;-1.90;97.00;-2.30;99090.00;;;;4894210;28;87606;-67
2022/03/12 07:56:57;;;;;;;9.75;6.57;;;-1.90;97.10;-2.20;99088.00;;;;4893656;28;88501;-66
2022/03/12 07:59:25;;;;;;;8.80;6.30;;;-1.90;97.00;-2.20;99089.00;;;;4875565;28;89438;-67
2022/03/12 08:01:51;;;;;;;10.32;7.32;;;-1.80;97.00;-2.10;99097.00;;;;4891606;28;87016;-66
2022/03/12 08:04:17;;;;;;;10.40;6.68;;;-1.70;96.90;-2.00;99084.00;;;;4893493;28;86993;-65
2022/03/12 08:06:44;;;;;;;9.65;6.72;;;-1.60;96.70;-1.90;99081.00;;;;4894065;28;87827;-66
2022/03/12 08:09:10;;;;;;;14.02;6.78;;;-1.50;96.60;-1.80;99087.00;;;;4894553;28;87223;-67
2022/03/12 08:11:36;;;;;;;10.02;6.55;;;-1.40;96.60;-1.70;99088.00;;;;4887471;28;87890;-68
2022/03/12 08:14:09;;;;;;;9.85;7.00;;;-1.40;96.70;-1.70;99100.00;;;;4891802;28;86284;-66
2022/03/12 08:16:37;;;;;;;8.40;6.45;;;-1.30;96.50;-1.70;99097.00;;;;4876594;28;88720;-67
2022/03/12 08:19:06;;;;;;;10.75;7.30;;;-1.30;96.30;-1.70;99110.00;;;;4893491;28;87602;-67
2022/03/12 08:21:33;;;;;;;10.23;6.88;;;-1.30;96.10;-1.70;99092.00;;;;4889154;28;87939;-66
2022/03/12 08:24:02;;;;;;;8.85;6.78;;;-1.30;96.20;-1.70;99091.00;;;;4892554;28;87364;-66
2022/03/12 08:26:30;;;;;;;12.05;7.03;;;-1.30;96.20;-1.70;99086.00;;;;4894747;28;87033;-66
2022/03/12 08:28:56;;;;;;;10.52;7.60;;;-1.40;96.40;-1.60;99085.00;;;;4897271;28;87999;-66
2022/03/12 08:31:22;;;;;;;8.73;7.47;;;-1.30;96.60;-1.70;99096.00;;;;4893303;28;87149;-66
2022/03/12 08:33:49;;;;;;;13.05;8.27;;;-1.30;96.50;-1.70;99096.00;;;;4893946;28;87975;-66
2022/03/12 08:36:15;;;;;;;11.00;7.90;;;-1.40;96.40;-1.70;99098.00;;;;4892901;28;87524;-66
2022/03/12 08:38:45;;;;;;;10.20;7.88;;;-1.50;96.60;-1.70;99093.00;;;;4894233;28;87403;-67
2022/03/12 08:41:12;;;;;;;12.57;7.88;;;-1.40;96.70;-1.60;99089.00;;;;4886235;28;87542;-67
2022/03/12 08:43:38;;;;;;;10.27;7.85;;;-1.30;96.50;-1.50;99098.00;;;;4894581;28;87057;-66
2022/03/12 08:46:07;;;;;;;11.02;8.10;;;-1.20;96.40;-1.60;99091.00;;;;4892570;28;88813;-66
2022/03/12 08:48:35;;;;;;;10.38;7.82;;;-1.20;96.40;-1.70;99097.00;;;;4892525;28;88830;-66
2022/03/12 08:51:04;;;;;;;12.23;7.47;;;-1.40;96.20;-1.80;99096.00;;;;4895331;28;86998;-67
2022/03/12 08:53:31;;;;;;;9.85;7.22;;;-1.40;96.40;-1.80;99111.00;;;;4888765;28;87598;-66
2022/03/12 08:56:00;;;;;;;10.20;7.70;;;-1.40;96.40;-1.70;99111.00;;;;4893071;28;88298;-66
2022/03/12 08:58:29;;;;;;;10.40;7.53;;;-1.40;96.50;-1.70;99112.00;;;;4892523;28;87546;-67
2022/03/12 09:00:58;;;;;;;12.32;8.23;;;-1.30;96.40;-1.70;99110.00;;;;4896591;28;87088;-67
2022/03/12 09:03:25;;;;;;;9.60;7.38;;;-1.30;96.40;-1.70;99096.00;;;;4893096;28;86550;-66
2022/03/12 09:05:52;;;;;;;11.75;7.57;;;-1.20;96.30;-1.60;99100.00;;;;4893976;28;87762;-66
2022/03/12 09:08:18;;;;;;;11.27;8.18;;;-1.20;96.40;-1.60;99099.00;;;;4890978;28;87296;-66
2022/03/12 09:10:46;;;;;;;11.68;7.90;;;-1.20;96.40;-1.70;99100.00;;;;4891263;28;88575;-66
2022/03/12 09:13:16;;;;;;;9.13;7.47;;;-1.30;96.30;-1.70;99110.00;;;;4895037;28;87179;-67
2022/03/12 09:15:43;;;;;;;12.88;8.02;;;-1.30;96.40;-1.80;99114.00;;;;4860394;28;88736;-67
2022/03/12 09:18:11;;;;;;;10.65;7.78;;;-1.30;96.40;-1.70;99107.00;;;;4891022;28;89261;-67
2022/03/12 09:20:46;;;;;;;11.63;8.18;;;-1.30;96.60;-1.60;99111.00;;;;4876183;28;87365;-67
2022/03/12 09:23:18;;;;;;;10.75;7.20;;;-1.20;96.50;-1.70;99118.00;;;;4894802;28;87323;-67
2022/03/12 09:25:46;;;;;;;11.75;7.78;;;-1.30;96.30;-1.60;99099.00;;;;4874960;28;87878;-66
2022/03/12 09:28:14;;;;;;;10.07;6.75;;;-1.20;96.50;-1.50;99102.00;;;;4884694;28;87374;-66
2022/03/12 09:30:41;;;;;;;8.35;6.65;;;-1.20;96.10;-1.50;99127.00;;;;4891235;28;87069;-66
2022/03/12 09:33:08;;;;;;;7.82;6.00;;;-1.10;96.10;-1.50;99118.00;;;;4891673;28;87455;-66
2022/03/12 09:35:35;;;;;;;11.35;6.95;;;-1.10;95.80;-1.40;99125.00;;;;4892702;28;89852;-66
2022/03/12 09:38:02;;;;;;;8.60;6.20;;;-1.00;95.80;-1.50;99119.00;;;;4891512;28;89587;-66
2022/03/12 09:40:31;;;;;;;7.53;6.57;;;-1.10;95.70;-1.40;99115.00;;;;4894298;28;87299;-66
2022/03/12 09:42:58;;;;;;;9.00;6.82;;;-1.00;95.80;-1.40;99120.00;;;;4889639;28;87005;-67
2022/03/12 09:45:24;;;;;;;9.95;7.28;;;-1.00;95.80;-1.40;99104.00;;;;4889405;28;88976;-67
2022/03/12 09:47:51;;;;;;;10.52;7.35;;;-1.00;95.80;-1.40;99110.00;;;;4893817;28;88741;-67
2022/03/12 09:50:18;;;;;;;9.32;6.85;;;-1.00;95.80;-1.50;99125.00;;;;4889524;28;87698;-67
2022/03/12 09:52:45;;;;;;;10.57;6.85;;;-1.10;95.80;-1.50;99133.00;;;;4893141;28;86720;-66
2022/03/12 09:55:11;;;;;;;8.98;7.38;;;-1.10;95.90;-1.50;99144.00;;;;4888466;28;87525;-65
2022/03/12 09:57:37;;;;;;;10.10;7.43;;;-1.20;95.80;-1.60;99135.00;;;;4891829;28;87358;-67
2022/03/12 10:00:06;;;;;;;8.43;6.85;;;-1.20;96.30;-1.70;99138.00;;;;4875969;28;88356;-66
2022/03/12 10:02:39;;;;;;;11.25;7.18;;;-1.30;96.20;-1.70;99135.00;;;;4892663;28;87061;-67
2022/03/12 10:05:06;;;;;;;10.27;7.13;;;-1.40;96.20;-1.80;99149.00;;;;4893597;28;87661;-67
2022/03/12 10:07:33;;;;;;;9.45;7.43;;;-1.50;96.50;-1.80;99145.00;;;;4891739;28;87265;-68
2022/03/12 10:09:59;;;;;;;8.73;7.13;;;-1.40;96.50;-1.70;99135.00;;;;4894256;28;87314;-66
2022/03/12 10:12:26;;;;;;;11.77;7.35;;;-1.30;96.50;-1.70;99130.00;;;;4872174;28;87055;-67
2022/03/12 10:14:52;;;;;;;9.88;6.88;;;-1.20;96.40;-1.70;99135.00;;;;4891055;28;87565;-69
2022/03/12 10:17:18;;;;;;;8.15;6.57;;;-1.30;96.40;-1.70;99131.00;;;;4891448;28;87422;-62
2022/03/12 10:19:46;;;;;;;12.35;7.30;;;-1.30;96.20;-1.60;99136.00;;;;4892828;28;86989;-62
2022/03/12 10:22:14;;;;;;;10.05;7.15;;;-1.20;96.30;-1.60;99129.00;;;;4892995;28;87035;-63
2022/03/12 10:24:41;;;;;;;8.73;7.10;;;-1.20;96.10;-1.50;99135.00;;;;4890462;28;88699;-63
2022/03/12 10:27:08;;;;;;;10.20;7.43;;;-1.20;95.90;-1.50;99126.00;;;;4875338;28;88226;-62
2022/03/12 10:29:35;;;;;;;12.68;7.70;;;-1.20;95.90;-1.50;99132.00;;;;4895227;28;87025;-63
2022/03/12 10:32:25;;;;;;;9.23;7.22;;;-1.10;95.90;-1.40;99130.00;;;;4893379;28;87433;-62
2022/03/12 10:34:59;;;;;;;10.25;7.22;;;-1.10;95.80;-1.30;99136.00;;;;4885868;28;87686;-62
2022/03/12 10:37:31;;;;;;;11.10;7.20;;;-0.90;95.60;-1.30;99133.00;;;;4886029;28;87535;-64
2022/03/12 10:40:19;;;;;;;10.75;6.95;;;-0.90;95.40;-1.20;99127.00;;;;4895338;28;87415;-63
2022/03/12 10:42:58;;;;;;;8.07;7.00;;;-0.80;95.10;-1.10;99129.00;;;;4872887;28;86954;-63
2022/03/12 10:45:28;;;;;;;11.65;7.60;;;-0.70;95.10;-1.10;99142.00;;;;4895991;28;88816;-62
2022/03/12 10:48:03;;;;;;;10.63;6.85;;;-0.70;95.00;-1.20;99156.00;;;;4884266;28;87321;-65
2022/03/12 10:50:47;;;;;;;9.63;6.75;;;-0.80;95.00;-1.20;99140.00;;;;4889743;28;88276;-64
2022/03/12 10:53:15;;;;;;;10.57;6.75;;;-0.80;95.10;-1.20;99147.00;;;;4886938;28;87301;-62
2022/03/12 10:55:47;;;;;;;8.80;6.82;;;-0.70;95.10;-1.00;99136.00;;;;4891150;28;89044;-63
2022/03/12 10:58:16;;;;;;;9.00;6.55;;;-0.60;95.30;-1.00;99147.00;;;;4890035;28;87389;-62
2022/03/12 11:00:48;;;;;;;7.97;6.45;;;-0.70;94.70;-1.10;99145.00;;;;4875244;28;87087;-63
2022/03/12 11:03:20;;;;;;;9.73;6.63;;;-0.70;94.60;-1.10;99148.00;;;;4868293;28;87391;-62
2022/03/12 11:05:49;;;;;;;11.10;7.40;;;-0.80;94.70;-1.30;99145.00;;;;4876471;28;88616;-62